sensor_id;sensor_type;location;lat;lon;timestamp;pressure;altitude;pressure_sealevel;temperature;humidity
20023;BME280;10172;42.054;24.546;2023-05-07T00:01:32;98394.81;;;16.70;100.00
20023;BME280;10172;42.054;24.546;2023-05-07T00:03:58;98340.94;;;16.62;100.00
20023;BME280;10172;42.054;24.546;2023-05-07T00:06:23;98385.91;;;16.99;100.00
20023;BME280;10172;42.054;24.546;2023-05-07T00:08:49;98333.56;;;14.83;100.00
20023;BME280;10172;42.054;24.546;2023-05-07T00:11:14;98343.03;;;14.01;100.00
20023;BME280;10172;42.054;24.546;2023-05-07T00:13:40;98367.59;;;13.51;100.00
20023;BME280;10172;42.054;24.546;2023-05-07T00:16:05;98353.88;;;13.89;100.00
20023;BME280;10172;42.054;24.546;2023-05-07T00:18:31;98378.97;;;14.30;100.00
20023;BME280;10172;42.054;24.546;2023-05-07T00:20:56;98351.81;;;13.81;100.00
20023;BME280;10172;42.054;24.546;2023-05-07T00:23:22;98349.84;;;13.94;100.00
20023;BME280;10172;42.054;24.546;2023-05-07T00:25:48;98365.50;;;14.21;100.00
20023;BME280;10172;42.054;24.546;2023-05-07T00:28:13;98342.94;;;14.57;100.00
20023;BME280;10172;42.054;24.546;2023-05-07T00:30:39;98387.97;;;14.29;100.00
20023;BME280;10172;42.054;24.546;2023-05-07T00:33:04;98342.03;;;14.13;100.00
20023;BME280;10172;42.054;24.546;2023-05-07T00:35:30;98361.16;;;14.63;100.00
20023;BME280;10172;42.054;24.546;2023-05-07T00:37:55;98368.44;;;14.72;100.00
20023;BME280;10172;42.054;24.546;2023-05-07T00:40:21;98336.13;;;15.05;100.00
20023;BME280;10172;42.054;24.546;2023-05-07T00:42:46;98348.19;;;14.79;100.00
20023;BME280;10172;42.054;24.546;2023-05-07T00:45:14;98379.50;;;15.20;100.00
20023;BME280;10172;42.054;24.546;2023-05-07T00:47:40;98336.72;;;14.56;100.00
20023;BME280;10172;42.054;24.546;2023-05-07T00:50:07;98365.56;;;15.16;100.00
20023;BME280;10172;42.054;24.546;2023-05-07T00:52:33;98377.06;;;14.32;100.00
20023;BME280;10172;42.054;24.546;2023-05-07T00:55:05;98395.75;;;14.44;100.00
20023;BME280;10172;42.054;24.546;2023-05-07T00:57:39;98408.59;;;15.04;100.00
20023;BME280;10172;42.054;24.546;2023-05-07T01:00:07;98410.25;;;14.84;100.00
20023;BME280;10172;42.054;24.546;2023-05-07T01:02:41;98421.72;;;14.75;100.00
20023;BME280;10172;42.054;24.546;2023-05-07T01:05:09;98421.44;;;13.91;100.00
20023;BME280;10172;42.054;24.546;2023-05-07T01:07:35;98400.78;;;13.70;100.00
20023;BME280;10172;42.054;24.546;2023-05-07T01:10:03;98389.59;;;14.10;100.00
20023;BME280;10172;42.054;24.546;2023-05-07T01:12:30;98420.84;;;14.85;100.00
20023;BME280;10172;42.054;24.546;2023-05-07T01:14:56;98387.53;;;14.99;100.00
20023;BME280;10172;42.054;24.546;2023-05-07T01:17:22;98395.28;;;15.54;100.00
20023;BME280;10172;42.054;24.546;2023-05-07T01:19:48;98400.09;;;14.67;100.00
20023;BME280;10172;42.054;24.546;2023-05-07T01:22:14;98433.94;;;15.52;100.00
20023;BME280;10172;42.054;24.546;2023-05-07T01:24:41;98433.28;;;14.75;100.00
20023;BME280;10172;42.054;24.546;2023-05-07T01:27:07;98426.56;;;14.38;100.00
20023;BME280;10172;42.054;24.546;2023-05-07T01:29:32;98406.25;;;15.10;100.00
20023;BME280;10172;42.054;24.546;2023-05-07T01:31:59;98410.38;;;13.95;100.00
20023;BME280;10172;42.054;24.546;2023-05-07T01:34:27;98443.09;;;14.54;100.00
20023;BME280;10172;42.054;24.546;2023-05-07T01:36:54;98416.97;;;15.10;100.00
20023;BME280;10172;42.054;24.546;2023-05-07T01:39:23;98437.03;;;15.47;100.00
20023;BME280;10172;42.054;24.546;2023-05-07T01:41:49;98404.97;;;14.62;100.00
20023;BME280;10172;42.054;24.546;2023-05-07T01:44:16;98416.75;;;14.70;100.00
20023;BME280;10172;42.054;24.546;2023-05-07T01:46:42;98400.16;;;14.76;100.00
20023;BME280;10172;42.054;24.546;2023-05-07T01:49:08;98434.06;;;14.44;100.00
20023;BME280;10172;42.054;24.546;2023-05-07T01:51:34;98395.81;;;14.32;100.00
20023;BME280;10172;42.054;24.546;2023-05-07T01:53:59;98417.00;;;14.99;100.00
20023;BME280;10172;42.054;24.546;2023-05-07T01:56:25;98420.97;;;15.36;100.00
20023;BME280;10172;42.054;24.546;2023-05-07T01:58:51;98395.78;;;14.21;100.00
20023;BME280;10172;42.054;24.546;2023-05-07T02:01:17;98411.13;;;13.86;100.00
20023;BME280;10172;42.054;24.546;2023-05-07T02:03:43;98395.53;;;13.69;100.00
20023;BME280;10172;42.054;24.546;2023-05-07T02:06:09;98405.53;;;13.89;100.00
20023;BME280;10172;42.054;24.546;2023-05-07T02:08:35;98383.16;;;13.90;100.00
20023;BME280;10172;42.054;24.546;2023-05-07T02:11:01;98396.66;;;14.76;100.00
20023;BME280;10172;42.054;24.546;2023-05-07T02:13:29;98411.31;;;14.50;100.00
20023;BME280;10172;42.054;24.546;2023-05-07T02:15:55;98371.97;;;14.07;100.00
20023;BME280;10172;42.054;24.546;2023-05-07T02:18:20;98385.47;;;13.72;100.00
20023;BME280;10172;42.054;24.546;2023-05-07T02:20:45;98396.53;;;14.77;100.00
20023;BME280;10172;42.054;24.546;2023-05-07T02:23:11;98377.06;;;14.32;100.00
20023;BME280;10172;42.054;24.546;2023-05-07T02:25:36;98403.19;;;14.40;100.00
20023;BME280;10172;42.054;24.546;2023-05-07T02:28:02;98391.09;;;15.20;100.00
20023;BME280;10172;42.054;24.546;2023-05-07T02:30:28;98400.63;;;14.50;100.00
20023;BME280;10172;42.054;24.546;2023-05-07T02:37:11;98389.41;;;14.87;100.00
20023;BME280;10172;42.054;24.546;2023-05-07T02:39:36;98410.84;;;15.19;100.00
20023;BME280;10172;42.054;24.546;2023-05-07T02:42:02;98400.63;;;15.13;100.00
20023;BME280;10172;42.054;24.546;2023-05-07T02:44:27;98418.50;;;14.92;100.00
20023;BME280;10172;42.054;24.546;2023-05-07T02:46:56;98384.84;;;14.13;100.00
20023;BME280;10172;42.054;24.546;2023-05-07T02:49:21;98388.88;;;13.97;100.00
20023;BME280;10172;42.054;24.546;2023-05-07T02:51:47;98346.56;;;13.57;100.00
20023;BME280;10172;42.054;24.546;2023-05-07T02:54:12;98340.97;;;13.03;100.00
20023;BME280;10172;42.054;24.546;2023-05-07T02:56:38;98362.44;;;13.26;100.00
20023;BME280;10172;42.054;24.546;2023-05-07T02:59:03;98382.31;;;13.78;100.00
20023;BME280;10172;42.054;24.546;2023-05-07T03:01:29;98393.22;;;13.53;100.00
20023;BME280;10172;42.054;24.546;2023-05-07T03:03:54;98369.19;;;12.73;100.00
20023;BME280;10172;42.054;24.546;2023-05-07T03:06:20;98357.66;;;11.88;100.00
20023;BME280;10172;42.054;24.546;2023-05-07T03:08:46;98353.09;;;11.40;100.00
20023;BME280;10172;42.054;24.546;2023-05-07T03:11:11;98370.16;;;12.12;100.00
20023;BME280;10172;42.054;24.546;2023-05-07T03:13:36;98353.66;;;12.07;100.00
20023;BME280;10172;42.054;24.546;2023-05-07T03:16:02;98377.13;;;12.38;100.00
20023;BME280;10172;42.054;24.546;2023-05-07T03:18:27;98378.13;;;13.06;100.00
20023;BME280;10172;42.054;24.546;2023-05-07T03:20:53;98338.38;;;13.14;100.00
20023;BME280;10172;42.054;24.546;2023-05-07T03:23:18;98355.78;;;12.62;100.00
20023;BME280;10172;42.054;24.546;2023-05-07T03:25:44;98381.84;;;13.16;100.00
20023;BME280;10172;42.054;24.546;2023-05-07T03:28:09;98394.34;;;11.72;100.00
20023;BME280;10172;42.054;24.546;2023-05-07T03:30:35;98391.78;;;12.32;100.00
20023;BME280;10172;42.054;24.546;2023-05-07T03:33:00;98382.41;;;12.27;100.00
20023;BME280;10172;42.054;24.546;2023-05-07T03:35:26;98392.84;;;12.30;100.00
20023;BME280;10172;42.054;24.546;2023-05-07T03:37:51;98392.00;;;11.80;100.00
20023;BME280;10172;42.054;24.546;2023-05-07T03:40:17;98386.00;;;12.26;100.00
20023;BME280;10172;42.054;24.546;2023-05-07T03:42:42;98382.84;;;12.21;100.00
20023;BME280;10172;42.054;24.546;2023-05-07T03:45:08;98401.59;;;12.55;100.00
20023;BME280;10172;42.054;24.546;2023-05-07T03:47:33;98399.81;;;12.91;100.00
20023;BME280;10172;42.054;24.546;2023-05-07T03:49:59;98395.34;;;12.91;100.00
20023;BME280;10172;42.054;24.546;2023-05-07T03:52:25;98383.56;;;11.11;100.00
20023;BME280;10172;42.054;24.546;2023-05-07T03:54:52;98402.72;;;11.66;100.00
20023;BME280;10172;42.054;24.546;2023-05-07T03:57:18;98385.03;;;11.90;100.00
20023;BME280;10172;42.054;24.546;2023-05-07T03:59:43;98393.91;;;11.78;100.00
20023;BME280;10172;42.054;24.546;2023-05-07T04:02:09;98409.53;;;12.08;100.00
20023;BME280;10172;42.054;24.546;2023-05-07T04:04:34;98378.53;;;11.94;100.00
20023;BME280;10172;42.054;24.546;2023-05-07T04:07:00;98394.63;;;12.06;100.00
20023;BME280;10172;42.054;24.546;2023-05-07T04:09:25;98396.47;;;12.29;100.00
20023;BME280;10172;42.054;24.546;2023-05-07T04:11:51;98416.53;;;12.58;100.00
20023;BME280;10172;42.054;24.546;2023-05-07T04:14:16;98418.88;;;12.86;100.00
20023;BME280;10172;42.054;24.546;2023-05-07T04:16:42;98381.69;;;12.48;100.00
20023;BME280;10172;42.054;24.546;2023-05-07T04:19:07;98399.41;;;12.84;100.00
20023;BME280;10172;42.054;24.546;2023-05-07T04:21:33;98391.44;;;12.95;100.00
20023;BME280;10172;42.054;24.546;2023-05-07T04:23:58;98384.94;;;12.52;100.00
20023;BME280;10172;42.054;24.546;2023-05-07T04:26:24;98377.47;;;12.81;100.00
20023;BME280;10172;42.054;24.546;2023-05-07T04:28:49;98400.88;;;13.12;100.00
20023;BME280;10172;42.054;24.546;2023-05-07T04:31:15;98380.50;;;12.16;100.00
20023;BME280;10172;42.054;24.546;2023-05-07T04:33:40;98368.41;;;11.49;100.00
20023;BME280;10172;42.054;24.546;2023-05-07T04:36:06;98354.81;;;12.39;100.00
20023;BME280;10172;42.054;24.546;2023-05-07T04:38:32;98388.38;;;12.54;100.00
20023;BME280;10172;42.054;24.546;2023-05-07T04:41:02;98360.66;;;12.68;100.00
20023;BME280;10172;42.054;24.546;2023-05-07T04:43:28;98352.97;;;12.63;100.00
20023;BME280;10172;42.054;24.546;2023-05-07T04:45:54;98381.41;;;12.99;100.00
20023;BME280;10172;42.054;24.546;2023-05-07T04:48:19;98385.88;;;13.33;100.00
20023;BME280;10172;42.054;24.546;2023-05-07T04:50:49;98349.59;;;13.42;100.00
20023;BME280;10172;42.054;24.546;2023-05-07T04:53:15;98369.75;;;14.01;100.00
20023;BME280;10172;42.054;24.546;2023-05-07T04:55:40;98378.50;;;14.36;100.00
20023;BME280;10172;42.054;24.546;2023-05-07T04:58:06;98394.00;;;14.65;100.00
20023;BME280;10172;42.054;24.546;2023-05-07T05:00:31;98385.78;;;14.57;100.00
20023;BME280;10172;42.054;24.546;2023-05-07T05:02:56;98392.66;;;15.02;100.00
20023;BME280;10172;42.054;24.546;2023-05-07T05:05:22;98399.84;;;15.22;100.00
20023;BME280;10172;42.054;24.546;2023-05-07T05:07:47;98401.22;;;15.48;100.00
20023;BME280;10172;42.054;24.546;2023-05-07T05:10:13;98392.09;;;15.81;100.00
20023;BME280;10172;42.054;24.546;2023-05-07T05:12:38;98384.44;;;15.56;100.00
20023;BME280;10172;42.054;24.546;2023-05-07T05:15:04;98402.84;;;15.91;100.00
20023;BME280;10172;42.054;24.546;2023-05-07T05:17:30;98402.84;;;16.31;100.00
20023;BME280;10172;42.054;24.546;2023-05-07T05:19:56;98382.94;;;16.33;100.00
20023;BME280;10172;42.054;24.546;2023-05-07T05:22:21;98396.13;;;16.06;100.00
20023;BME280;10172;42.054;24.546;2023-05-07T05:24:47;98419.16;;;16.48;100.00
20023;BME280;10172;42.054;24.546;2023-05-07T05:27:12;98414.69;;;16.58;100.00
20023;BME280;10172;42.054;24.546;2023-05-07T05:29:37;98422.94;;;16.86;100.00
20023;BME280;10172;42.054;24.546;2023-05-07T05:32:03;98394.63;;;16.82;100.00
20023;BME280;10172;42.054;24.546;2023-05-07T05:34:28;98392.03;;;16.02;100.00
20023;BME280;10172;42.054;24.546;2023-05-07T05:36:54;98397.66;;;15.27;100.00
20023;BME280;10172;42.054;24.546;2023-05-07T05:39:20;98425.94;;;15.20;100.00
20023;BME280;10172;42.054;24.546;2023-05-07T05:41:46;98405.03;;;15.55;100.00
20023;BME280;10172;42.054;24.546;2023-05-07T05:44:12;98428.97;;;15.68;100.00
20023;BME280;10172;42.054;24.546;2023-05-07T05:46:37;98421.06;;;15.67;100.00
20023;BME280;10172;42.054;24.546;2023-05-07T05:49:03;98412.44;;;15.93;100.00
20023;BME280;10172;42.054;24.546;2023-05-07T05:51:28;98440.31;;;16.62;100.00
20023;BME280;10172;42.054;24.546;2023-05-07T05:53:53;98427.47;;;15.54;100.00
20023;BME280;10172;42.054;24.546;2023-05-07T05:56:19;98411.16;;;16.18;100.00
20023;BME280;10172;42.054;24.546;2023-05-07T05:58:44;98415.16;;;16.83;100.00
20023;BME280;10172;42.054;24.546;2023-05-07T06:01:10;98409.59;;;16.55;100.00
20023;BME280;10172;42.054;24.546;2023-05-07T06:03:37;98422.97;;;17.62;100.00
20023;BME280;10172;42.054;24.546;2023-05-07T06:06:02;98439.47;;;16.32;100.00
20023;BME280;10172;42.054;24.546;2023-05-07T06:08:29;98448.53;;;16.90;100.00
20023;BME280;10172;42.054;24.546;2023-05-07T06:10:55;98417.41;;;16.28;100.00
20023;BME280;10172;42.054;24.546;2023-05-07T06:13:21;98432.72;;;17.15;100.00
20023;BME280;10172;42.054;24.546;2023-05-07T06:15:46;98441.19;;;16.42;100.00
20023;BME280;10172;42.054;24.546;2023-05-07T06:18:12;98424.94;;;17.03;100.00
20023;BME280;10172;42.054;24.546;2023-05-07T06:20:37;98437.38;;;17.42;100.00
20023;BME280;10172;42.054;24.546;2023-05-07T06:23:03;98412.22;;;17.05;100.00
20023;BME280;10172;42.054;24.546;2023-05-07T06:25:28;98415.91;;;16.05;100.00
20023;BME280;10172;42.054;24.546;2023-05-07T06:27:53;98420.13;;;17.16;100.00
20023;BME280;10172;42.054;24.546;2023-05-07T06:30:19;98443.84;;;16.82;100.00
20023;BME280;10172;42.054;24.546;2023-05-07T06:32:44;98401.16;;;16.69;100.00
20023;BME280;10172;42.054;24.546;2023-05-07T06:35:10;98406.81;;;16.86;100.00
20023;BME280;10172;42.054;24.546;2023-05-07T06:37:36;98445.84;;;18.32;100.00
20023;BME280;10172;42.054;24.546;2023-05-07T06:40:05;98435.41;;;17.73;100.00
20023;BME280;10172;42.054;24.546;2023-05-07T06:42:30;98423.38;;;17.48;100.00
20023;BME280;10172;42.054;24.546;2023-05-07T06:44:56;98413.75;;;17.65;100.00
20023;BME280;10172;42.054;24.546;2023-05-07T06:47:21;98401.69;;;17.78;100.00
20023;BME280;10172;42.054;24.546;2023-05-07T06:49:47;98412.91;;;17.55;100.00
20023;BME280;10172;42.054;24.546;2023-05-07T06:52:12;98414.91;;;17.24;100.00
20023;BME280;10172;42.054;24.546;2023-05-07T06:54:38;98438.22;;;17.04;100.00
20023;BME280;10172;42.054;24.546;2023-05-07T06:57:03;98433.84;;;17.03;100.00
20023;BME280;10172;42.054;24.546;2023-05-07T06:59:28;98401.88;;;17.10;100.00
20023;BME280;10172;42.054;24.546;2023-05-07T07:01:54;98439.66;;;18.12;100.00
20023;BME280;10172;42.054;24.546;2023-05-07T07:04:19;98434.81;;;18.62;100.00
20023;BME280;10172;42.054;24.546;2023-05-07T07:06:47;98404.31;;;18.79;100.00
20023;BME280;10172;42.054;24.546;2023-05-07T07:09:12;98412.81;;;19.55;100.00
20023;BME280;10172;42.054;24.546;2023-05-07T07:11:38;98436.88;;;20.17;100.00
20023;BME280;10172;42.054;24.546;2023-05-07T07:14:04;98422.03;;;20.21;98.21
20023;BME280;10172;42.054;24.546;2023-05-07T07:16:30;98439.56;;;20.85;94.26
20023;BME280;10172;42.054;24.546;2023-05-07T07:18:55;98462.72;;;21.45;91.19
20023;BME280;10172;42.054;24.546;2023-05-07T07:21:21;98463.34;;;21.23;89.24
20023;BME280;10172;42.054;24.546;2023-05-07T07:23:46;98423.97;;;21.53;88.04
20023;BME280;10172;42.054;24.546;2023-05-07T07:26:12;98436.22;;;20.23;90.80
20023;BME280;10172;42.054;24.546;2023-05-07T07:28:45;98442.75;;;19.44;100.00
20023;BME280;10172;42.054;24.546;2023-05-07T07:31:10;98448.53;;;20.44;93.66
20023;BME280;10172;42.054;24.546;2023-05-07T07:33:36;98421.84;;;20.41;93.46
20023;BME280;10172;42.054;24.546;2023-05-07T07:36:02;98440.75;;;20.91;89.60
20023;BME280;10172;42.054;24.546;2023-05-07T07:38:27;98432.63;;;21.57;87.06
20023;BME280;10172;42.054;24.546;2023-05-07T07:40:53;98437.69;;;21.60;83.81
20023;BME280;10172;42.054;24.546;2023-05-07T07:43:18;98450.19;;;21.77;83.64
20023;BME280;10172;42.054;24.546;2023-05-07T07:45:44;98431.56;;;21.74;84.68
20023;BME280;10172;42.054;24.546;2023-05-07T07:48:11;98444.97;;;21.59;85.82
20023;BME280;10172;42.054;24.546;2023-05-07T07:50:36;98445.13;;;21.66;85.17
20023;BME280;10172;42.054;24.546;2023-05-07T07:53:02;98450.16;;;22.25;84.78
20023;BME280;10172;42.054;24.546;2023-05-07T07:55:27;98452.16;;;22.39;82.30
20023;BME280;10172;42.054;24.546;2023-05-07T07:57:53;98443.41;;;22.76;81.14
20023;BME280;10172;42.054;24.546;2023-05-07T08:00:19;98448.38;;;22.65;79.99
20023;BME280;10172;42.054;24.546;2023-05-07T08:02:44;98440.09;;;22.42;81.18
20023;BME280;10172;42.054;24.546;2023-05-07T08:05:10;98464.19;;;22.92;80.93
20023;BME280;10172;42.054;24.546;2023-05-07T08:07:35;98400.38;;;22.18;82.66
20023;BME280;10172;42.054;24.546;2023-05-07T08:10:01;98418.72;;;22.08;83.28
20023;BME280;10172;42.054;24.546;2023-05-07T08:12:27;98429.91;;;22.68;81.89
20023;BME280;10172;42.054;24.546;2023-05-07T08:14:53;98437.59;;;22.79;82.02
20023;BME280;10172;42.054;24.546;2023-05-07T08:17:18;98452.09;;;23.25;80.50
20023;BME280;10172;42.054;24.546;2023-05-07T08:19:43;98430.06;;;22.97;78.86
20023;BME280;10172;42.054;24.546;2023-05-07T08:22:09;98429.66;;;23.62;76.99
20023;BME280;10172;42.054;24.546;2023-05-07T08:24:36;98399.63;;;23.78;76.24
20023;BME280;10172;42.054;24.546;2023-05-07T08:27:02;98403.69;;;23.37;77.56
20023;BME280;10172;42.054;24.546;2023-05-07T08:29:27;98398.66;;;23.26;77.12
20023;BME280;10172;42.054;24.546;2023-05-07T08:31:53;98395.03;;;23.33;77.90
20023;BME280;10172;42.054;24.546;2023-05-07T08:34:19;98399.53;;;22.95;78.60
20023;BME280;10172;42.054;24.546;2023-05-07T08:36:44;98420.34;;;23.56;78.66
20023;BME280;10172;42.054;24.546;2023-05-07T08:39:12;98372.56;;;23.47;77.69
20023;BME280;10172;42.054;24.546;2023-05-07T08:41:37;98385.22;;;23.32;76.90
20023;BME280;10172;42.054;24.546;2023-05-07T08:44:06;98401.13;;;23.43;76.91
20023;BME280;10172;42.054;24.546;2023-05-07T08:46:36;98370.78;;;23.40;77.17
20023;BME280;10172;42.054;24.546;2023-05-07T08:49:02;98392.91;;;23.51;75.83
20023;BME280;10172;42.054;24.546;2023-05-07T08:51:28;98364.81;;;23.36;76.70
20023;BME280;10172;42.054;24.546;2023-05-07T08:53:53;98375.81;;;23.65;73.98
20023;BME280;10172;42.054;24.546;2023-05-07T08:56:19;98369.03;;;23.84;69.92
20023;BME280;10172;42.054;24.546;2023-05-07T08:58:45;98386.56;;;24.25;68.39
20023;BME280;10172;42.054;24.546;2023-05-07T09:01:15;98376.75;;;23.72;70.17
20023;BME280;10172;42.054;24.546;2023-05-07T09:03:44;98372.50;;;23.55;69.31
20023;BME280;10172;42.054;24.546;2023-05-07T09:06:10;98343.97;;;23.74;69.02
20023;BME280;10172;42.054;24.546;2023-05-07T09:08:36;98352.00;;;23.53;69.74
20023;BME280;10172;42.054;24.546;2023-05-07T09:11:02;98363.44;;;24.29;68.23
20023;BME280;10172;42.054;24.546;2023-05-07T09:13:28;98355.56;;;24.34;69.18
20023;BME280;10172;42.054;24.546;2023-05-07T09:15:54;98343.59;;;23.77;66.51
20023;BME280;10172;42.054;24.546;2023-05-07T09:18:20;98334.00;;;23.89;64.91
20023;BME280;10172;42.054;24.546;2023-05-07T09:20:45;98349.66;;;24.31;64.99
20023;BME280;10172;42.054;24.546;2023-05-07T09:23:11;98312.78;;;23.85;63.54
20023;BME280;10172;42.054;24.546;2023-05-07T09:25:37;98378.16;;;24.20;61.23
20023;BME280;10172;42.054;24.546;2023-05-07T09:28:03;98333.88;;;23.83;61.68
20023;BME280;10172;42.054;24.546;2023-05-07T09:30:30;98360.31;;;23.89;62.20
20023;BME280;10172;42.054;24.546;2023-05-07T09:33:00;98328.06;;;23.86;60.95
20023;BME280;10172;42.054;24.546;2023-05-07T09:35:26;98358.34;;;24.56;58.74
20023;BME280;10172;42.054;24.546;2023-05-07T09:37:56;98326.03;;;24.17;58.07
20023;BME280;10172;42.054;24.546;2023-05-07T09:40:27;98330.72;;;24.23;60.46
20023;BME280;10172;42.054;24.546;2023-05-07T09:42:53;98350.13;;;24.49;61.11
20023;BME280;10172;42.054;24.546;2023-05-07T09:45:37;98344.56;;;24.57;62.50
20023;BME280;10172;42.054;24.546;2023-05-07T09:48:05;98341.41;;;24.75;57.87
20023;BME280;10172;42.054;24.546;2023-05-07T09:50:36;98353.22;;;24.46;58.09
20023;BME280;10172;42.054;24.546;2023-05-07T09:53:03;98342.44;;;24.09;58.93
20023;BME280;10172;42.054;24.546;2023-05-07T09:55:29;98334.19;;;24.82;57.46
20023;BME280;10172;42.054;24.546;2023-05-07T09:57:57;98336.31;;;24.51;56.12
20023;BME280;10172;42.054;24.546;2023-05-07T10:00:23;98336.91;;;24.17;59.70
20023;BME280;10172;42.054;24.546;2023-05-07T10:02:57;98322.47;;;24.31;60.19
20023;BME280;10172;42.054;24.546;2023-05-07T10:05:22;98316.53;;;24.42;58.38
20023;BME280;10172;42.054;24.546;2023-05-07T10:07:49;98307.91;;;24.53;56.39
20023;BME280;10172;42.054;24.546;2023-05-07T10:10:15;98312.91;;;25.07;56.43
20023;BME280;10172;42.054;24.546;2023-05-07T10:12:42;98312.91;;;25.07;54.03
20023;BME280;10172;42.054;24.546;2023-05-07T10:15:09;98309.78;;;25.31;53.87
20023;BME280;10172;42.054;24.546;2023-05-07T10:17:36;98316.09;;;24.89;53.16
20023;BME280;10172;42.054;24.546;2023-05-07T10:20:02;98317.31;;;25.50;51.54
20023;BME280;10172;42.054;24.546;2023-05-07T10:22:33;98314.06;;;25.40;51.33
20023;BME280;10172;42.054;24.546;2023-05-07T10:25:06;98294.03;;;25.47;52.48
20023;BME280;10172;42.054;24.546;2023-05-07T10:27:34;98310.63;;;25.31;52.99
20023;BME280;10172;42.054;24.546;2023-05-07T10:30:10;98310.84;;;25.30;51.99
20023;BME280;10172;42.054;24.546;2023-05-07T10:32:45;98280.22;;;25.28;52.74
20023;BME280;10172;42.054;24.546;2023-05-07T10:35:36;98296.66;;;25.62;50.28
20023;BME280;10172;42.054;24.546;2023-05-07T10:38:04;98304.66;;;25.42;50.51
20023;BME280;10172;42.054;24.546;2023-05-07T10:40:30;98270.84;;;25.58;51.05
20023;BME280;10172;42.054;24.546;2023-05-07T10:42:58;98294.41;;;26.00;50.80
20023;BME280;10172;42.054;24.546;2023-05-07T10:45:25;98291.59;;;25.87;51.12
20023;BME280;10172;42.054;24.546;2023-05-07T10:50:36;98294.69;;;25.28;49.57
20023;BME280;10172;42.054;24.546;2023-05-07T10:55:46;98279.22;;;25.84;49.47
20023;BME280;10172;42.054;24.546;2023-05-07T11:00:48;98284.16;;;25.74;49.72
20023;BME280;10172;42.054;24.546;2023-05-07T11:03:14;98267.56;;;26.03;49.03
20023;BME280;10172;42.054;24.546;2023-05-07T11:05:41;98265.31;;;25.73;48.30
20023;BME280;10172;42.054;24.546;2023-05-07T11:08:07;98281.53;;;25.87;48.25
20023;BME280;10172;42.054;24.546;2023-05-07T11:13:14;98264.38;;;25.93;47.51
20023;BME280;10172;42.054;24.546;2023-05-07T11:15:42;98241.47;;;25.81;48.99
20023;BME280;10172;42.054;24.546;2023-05-07T11:18:10;98255.53;;;26.19;49.04
20023;BME280;10172;42.054;24.546;2023-05-07T11:20:56;98250.31;;;26.31;45.53
20023;BME280;10172;42.054;24.546;2023-05-07T11:26:04;98249.94;;;25.99;45.96
20023;BME280;10172;42.054;24.546;2023-05-07T11:28:31;98255.78;;;26.31;46.10
20023;BME280;10172;42.054;24.546;2023-05-07T11:30:57;98260.75;;;26.68;44.92
20023;BME280;10172;42.054;24.546;2023-05-07T11:33:23;98239.63;;;26.29;44.93
20023;BME280;10172;42.054;24.546;2023-05-07T11:35:55;98224.63;;;26.66;43.23
20023;BME280;10172;42.054;24.546;2023-05-07T11:38:21;98236.78;;;26.57;41.97
20023;BME280;10172;42.054;24.546;2023-05-07T11:40:54;98267.38;;;26.46;42.87
20023;BME280;10172;42.054;24.546;2023-05-07T11:43:20;98259.78;;;26.41;43.03
20023;BME280;10172;42.054;24.546;2023-05-07T11:45:47;98257.69;;;26.37;44.77
20023;BME280;10172;42.054;24.546;2023-05-07T11:48:13;98219.97;;;25.99;45.19
20023;BME280;10172;42.054;24.546;2023-05-07T11:51:10;98238.94;;;26.14;44.48
20023;BME280;10172;42.054;24.546;2023-05-07T11:53:40;98244.69;;;26.39;42.29
20023;BME280;10172;42.054;24.546;2023-05-07T11:56:07;98249.78;;;26.61;42.48
20023;BME280;10172;42.054;24.546;2023-05-07T11:58:33;98245.28;;;27.08;40.81
20023;BME280;10172;42.054;24.546;2023-05-07T12:00:58;98233.94;;;27.17;39.78
20023;BME280;10172;42.054;24.546;2023-05-07T12:03:24;98216.63;;;26.58;40.37
20023;BME280;10172;42.054;24.546;2023-05-07T12:05:49;98233.09;;;26.24;41.07
20023;BME280;10172;42.054;24.546;2023-05-07T12:08:15;98234.25;;;26.55;40.42
20023;BME280;10172;42.054;24.546;2023-05-07T12:10:44;98231.63;;;27.14;38.20
20023;BME280;10172;42.054;24.546;2023-05-07T12:13:20;98230.16;;;27.18;39.08
20023;BME280;10172;42.054;24.546;2023-05-07T12:15:47;98240.25;;;27.24;38.16
20023;BME280;10172;42.054;24.546;2023-05-07T12:18:15;98233.97;;;27.57;37.11
20023;BME280;10172;42.054;24.546;2023-05-07T12:20:41;98217.56;;;27.24;39.84
20023;BME280;10172;42.054;24.546;2023-05-07T12:23:06;98226.34;;;26.73;40.23
20023;BME280;10172;42.054;24.546;2023-05-07T12:25:41;98204.47;;;26.67;39.79
20023;BME280;10172;42.054;24.546;2023-05-07T12:28:13;98194.00;;;26.77;39.60
20023;BME280;10172;42.054;24.546;2023-05-07T12:30:43;98214.63;;;27.12;39.96
20023;BME280;10172;42.054;24.546;2023-05-07T12:33:10;98228.47;;;27.30;40.92
20023;BME280;10172;42.054;24.546;2023-05-07T12:35:42;98191.09;;;26.79;41.42
20023;BME280;10172;42.054;24.546;2023-05-07T12:38:12;98203.06;;;27.10;42.59
20023;BME280;10172;42.054;24.546;2023-05-07T12:40:40;98203.06;;;27.10;40.78
20023;BME280;10172;42.054;24.546;2023-05-07T12:43:06;98208.94;;;27.07;40.27
20023;BME280;10172;42.054;24.546;2023-05-07T12:45:37;98177.81;;;26.49;41.02
20023;BME280;10172;42.054;24.546;2023-05-07T12:48:04;98158.09;;;26.67;40.80
20023;BME280;10172;42.054;24.546;2023-05-07T12:50:33;98183.56;;;27.00;40.27
20023;BME280;10172;42.054;24.546;2023-05-07T12:52:59;98183.94;;;27.23;40.20
20023;BME280;10172;42.054;24.546;2023-05-07T12:55:24;98195.38;;;27.91;39.11
20023;BME280;10172;42.054;24.546;2023-05-07T12:57:51;98179.50;;;28.26;37.36
20023;BME280;10172;42.054;24.546;2023-05-07T13:00:40;98172.59;;;27.20;39.05